sensor_id;sensor_type;location;lat;lon;timestamp;P1;durP1;ratioP1;P2;durP2;ratioP2
45848;SDS011;31567;54.600;9.842;2023-07-08T00:03:53;11.52;;;10.52;;
45848;SDS011;31567;54.600;9.842;2023-07-08T00:07:32;11.85;;;10.70;;
45848;SDS011;31567;54.600;9.842;2023-07-08T00:11:12;13.85;;;12.50;;
45848;SDS011;31567;54.600;9.842;2023-07-08T00:14:53;8.77;;;8.07;;
45848;SDS011;31567;54.600;9.842;2023-07-08T00:18:32;12.10;;;11.00;;
45848;SDS011;31567;54.600;9.842;2023-07-08T00:22:12;11.63;;;9.57;;
45848;SDS011;31567;54.600;9.842;2023-07-08T00:25:55;9.32;;;8.55;;
45848;SDS011;31567;54.600;9.842;2023-07-08T00:29:35;15.80;;;13.02;;
45848;SDS011;31567;54.600;9.842;2023-07-08T00:33:14;12.95;;;11.65;;
45848;SDS011;31567;54.600;9.842;2023-07-08T00:36:55;15.18;;;13.75;;
45848;SDS011;31567;54.600;9.842;2023-07-08T00:40:34;13.65;;;12.32;;
45848;SDS011;31567;54.600;9.842;2023-07-08T00:44:14;15.48;;;13.82;;
45848;SDS011;31567;54.600;9.842;2023-07-08T00:47:54;13.73;;;12.52;;
45848;SDS011;31567;54.600;9.842;2023-07-08T00:51:39;12.32;;;11.13;;
45848;SDS011;31567;54.600;9.842;2023-07-08T00:55:19;11.95;;;10.85;;
45848;SDS011;31567;54.600;9.842;2023-07-08T00:59:16;12.80;;;11.60;;
45848;SDS011;31567;54.600;9.842;2023-07-08T01:03:05;13.23;;;10.73;;
45848;SDS011;31567;54.600;9.842;2023-07-08T01:06:46;9.15;;;8.10;;
45848;SDS011;31567;54.600;9.842;2023-07-08T01:10:42;12.43;;;11.32;;
45848;SDS011;31567;54.600;9.842;2023-07-08T01:14:25;12.15;;;10.77;;
45848;SDS011;31567;54.600;9.842;2023-07-08T01:18:12;11.65;;;10.52;;
45848;SDS011;31567;54.600;9.842;2023-07-08T01:25:41;15.98;;;14.50;;
45848;SDS011;31567;54.600;9.842;2023-07-08T01:29:23;17.67;;;13.73;;
45848;SDS011;31567;54.600;9.842;2023-07-08T01:33:04;15.88;;;14.15;;
45848;SDS011;31567;54.600;9.842;2023-07-08T01:36:52;17.40;;;15.73;;
45848;SDS011;31567;54.600;9.842;2023-07-08T01:40:37;22.55;;;17.48;;
45848;SDS011;31567;54.600;9.842;2023-07-08T01:48:11;18.25;;;11.48;;
45848;SDS011;31567;54.600;9.842;2023-07-08T01:51:53;29.35;;;25.60;;
45848;SDS011;31567;54.600;9.842;2023-07-08T01:55:32;16.15;;;14.55;;
45848;SDS011;31567;54.600;9.842;2023-07-08T01:59:12;24.30;;;19.17;;
45848;SDS011;31567;54.600;9.842;2023-07-08T02:02:51;21.10;;;19.00;;
45848;SDS011;31567;54.600;9.842;2023-07-08T02:06:31;18.65;;;16.65;;
45848;SDS011;31567;54.600;9.842;2023-07-08T02:10:10;17.83;;;15.82;;
45848;SDS011;31567;54.600;9.842;2023-07-08T02:13:50;19.08;;;14.40;;
45848;SDS011;31567;54.600;9.842;2023-07-08T02:17:30;19.50;;;13.88;;
45848;SDS011;31567;54.600;9.842;2023-07-08T02:21:09;15.18;;;13.15;;
45848;SDS011;31567;54.600;9.842;2023-07-08T02:24:49;14.60;;;11.85;;
45848;SDS011;31567;54.600;9.842;2023-07-08T02:28:29;15.00;;;13.30;;
45848;SDS011;31567;54.600;9.842;2023-07-08T02:32:08;13.30;;;11.77;;
45848;SDS011;31567;54.600;9.842;2023-07-08T02:35:48;23.08;;;12.90;;
45848;SDS011;31567;54.600;9.842;2023-07-08T02:39:28;19.80;;;13.60;;
45848;SDS011;31567;54.600;9.842;2023-07-08T02:43:07;14.38;;;12.90;;
45848;SDS011;31567;54.600;9.842;2023-07-08T02:46:47;16.40;;;12.68;;
45848;SDS011;31567;54.600;9.842;2023-07-08T02:50:27;17.67;;;15.13;;
45848;SDS011;31567;54.600;9.842;2023-07-08T02:54:06;15.23;;;13.57;;
45848;SDS011;31567;54.600;9.842;2023-07-08T02:57:46;16.30;;;13.75;;
45848;SDS011;31567;54.600;9.842;2023-07-08T03:01:25;17.73;;;13.90;;
45848;SDS011;31567;54.600;9.842;2023-07-08T03:05:06;19.23;;;16.63;;
45848;SDS011;31567;54.600;9.842;2023-07-08T03:08:46;20.13;;;14.82;;
45848;SDS011;31567;54.600;9.842;2023-07-08T03:12:26;26.70;;;14.88;;
45848;SDS011;31567;54.600;9.842;2023-07-08T03:16:05;24.40;;;16.35;;
45848;SDS011;31567;54.600;9.842;2023-07-08T03:19:51;19.30;;;14.25;;
45848;SDS011;31567;54.600;9.842;2023-07-08T03:23:30;20.63;;;14.50;;
45848;SDS011;31567;54.600;9.842;2023-07-08T03:27:10;19.50;;;14.63;;
45848;SDS011;31567;54.600;9.842;2023-07-08T03:30:51;18.38;;;13.50;;
45848;SDS011;31567;54.600;9.842;2023-07-08T03:34:31;20.80;;;15.23;;
45848;SDS011;31567;54.600;9.842;2023-07-08T03:38:11;24.20;;;14.93;;
45848;SDS011;31567;54.600;9.842;2023-07-08T03:41:50;19.88;;;13.80;;
45848;SDS011;31567;54.600;9.842;2023-07-08T03:45:31;23.15;;;16.33;;
45848;SDS011;31567;54.600;9.842;2023-07-08T03:49:10;21.02;;;15.40;;
45848;SDS011;31567;54.600;9.842;2023-07-08T03:52:52;16.88;;;14.95;;
45848;SDS011;31567;54.600;9.842;2023-07-08T03:56:33;23.52;;;16.73;;
45848;SDS011;31567;54.600;9.842;2023-07-08T04:00:13;24.08;;;14.23;;
45848;SDS011;31567;54.600;9.842;2023-07-08T04:03:54;22.88;;;13.77;;
45848;SDS011;31567;54.600;9.842;2023-07-08T04:07:35;25.20;;;17.00;;
45848;SDS011;31567;54.600;9.842;2023-07-08T04:11:18;17.90;;;14.40;;
45848;SDS011;31567;54.600;9.842;2023-07-08T04:14:59;31.20;;;20.60;;
45848;SDS011;31567;54.600;9.842;2023-07-08T04:18:39;23.33;;;19.67;;
45848;SDS011;31567;54.600;9.842;2023-07-08T04:22:18;24.92;;;18.83;;
45848;SDS011;31567;54.600;9.842;2023-07-08T04:25:58;28.00;;;20.20;;
45848;SDS011;31567;54.600;9.842;2023-07-08T04:29:38;22.65;;;20.35;;
45848;SDS011;31567;54.600;9.842;2023-07-08T04:33:17;25.02;;;19.42;;
45848;SDS011;31567;54.600;9.842;2023-07-08T04:36:57;18.23;;;16.23;;
45848;SDS011;31567;54.600;9.842;2023-07-08T04:40:37;26.45;;;18.58;;
45848;SDS011;31567;54.600;9.842;2023-07-08T04:44:18;28.38;;;23.58;;
45848;SDS011;31567;54.600;9.842;2023-07-08T04:47:58;25.30;;;21.60;;
45848;SDS011;31567;54.600;9.842;2023-07-08T04:51:38;27.77;;;24.52;;
45848;SDS011;31567;54.600;9.842;2023-07-08T04:55:18;31.42;;;27.02;;
45848;SDS011;31567;54.600;9.842;2023-07-08T04:58:58;26.58;;;23.77;;
45848;SDS011;31567;54.600;9.842;2023-07-08T05:02:38;30.05;;;26.85;;
45848;SDS011;31567;54.600;9.842;2023-07-08T05:06:17;39.10;;;30.67;;
45848;SDS011;31567;54.600;9.842;2023-07-08T05:09:57;38.65;;;33.85;;
45848;SDS011;31567;54.600;9.842;2023-07-08T05:13:37;43.13;;;37.22;;
45848;SDS011;31567;54.600;9.842;2023-07-08T05:17:17;40.47;;;36.33;;
45848;SDS011;31567;54.600;9.842;2023-07-08T05:20:57;45.15;;;39.13;;
45848;SDS011;31567;54.600;9.842;2023-07-08T05:24:36;42.40;;;38.08;;
45848;SDS011;31567;54.600;9.842;2023-07-08T05:28:16;45.17;;;38.05;;
45848;SDS011;31567;54.600;9.842;2023-07-08T05:31:55;41.25;;;36.85;;
45848;SDS011;31567;54.600;9.842;2023-07-08T05:35:35;36.78;;;32.85;;
45848;SDS011;31567;54.600;9.842;2023-07-08T05:39:14;33.10;;;29.58;;
45848;SDS011;31567;54.600;9.842;2023-07-08T05:42:54;32.13;;;28.90;;
45848;SDS011;31567;54.600;9.842;2023-07-08T05:46:34;28.75;;;25.67;;
45848;SDS011;31567;54.600;9.842;2023-07-08T05:50:13;28.67;;;25.65;;
45848;SDS011;31567;54.600;9.842;2023-07-08T05:53:53;28.45;;;24.58;;
45848;SDS011;31567;54.600;9.842;2023-07-08T05:57:32;25.63;;;22.63;;
45848;SDS011;31567;54.600;9.842;2023-07-08T06:01:12;22.17;;;20.15;;
45848;SDS011;31567;54.600;9.842;2023-07-08T06:04:51;20.08;;;18.25;;
45848;SDS011;31567;54.600;9.842;2023-07-08T06:08:31;18.80;;;16.90;;
45848;SDS011;31567;54.600;9.842;2023-07-08T06:12:11;19.90;;;15.15;;
45848;SDS011;31567;54.600;9.842;2023-07-08T06:15:50;14.93;;;13.45;;
45848;SDS011;31567;54.600;9.842;2023-07-08T06:19:30;12.00;;;10.23;;
45848;SDS011;31567;54.600;9.842;2023-07-08T06:23:10;9.95;;;9.00;;
45848;SDS011;31567;54.600;9.842;2023-07-08T06:26:49;8.95;;;5.88;;
45848;SDS011;31567;54.600;9.842;2023-07-08T06:30:29;7.43;;;5.10;;
45848;SDS011;31567;54.600;9.842;2023-07-08T06:34:08;6.45;;;4.45;;
45848;SDS011;31567;54.600;9.842;2023-07-08T06:37:48;5.90;;;4.07;;
45848;SDS011;31567;54.600;9.842;2023-07-08T06:41:27;4.32;;;4.00;;
45848;SDS011;31567;54.600;9.842;2023-07-08T06:45:07;6.85;;;4.20;;
45848;SDS011;31567;54.600;9.842;2023-07-08T06:48:47;4.18;;;3.35;;
45848;SDS011;31567;54.600;9.842;2023-07-08T06:52:26;5.70;;;3.53;;
45848;SDS011;31567;54.600;9.842;2023-07-08T06:56:06;4.75;;;3.80;;
45848;SDS011;31567;54.600;9.842;2023-07-08T06:59:47;6.15;;;4.32;;
45848;SDS011;31567;54.600;9.842;2023-07-08T07:03:26;6.13;;;3.97;;
45848;SDS011;31567;54.600;9.842;2023-07-08T07:07:06;6.18;;;3.70;;
45848;SDS011;31567;54.600;9.842;2023-07-08T07:10:45;4.95;;;3.78;;
45848;SDS011;31567;54.600;9.842;2023-07-08T07:14:25;4.53;;;3.35;;
45848;SDS011;31567;54.600;9.842;2023-07-08T07:18:04;4.60;;;3.40;;
45848;SDS011;31567;54.600;9.842;2023-07-08T07:21:44;6.50;;;3.30;;
45848;SDS011;31567;54.600;9.842;2023-07-08T07:25:23;3.75;;;2.63;;
45848;SDS011;31567;54.600;9.842;2023-07-08T07:29:03;4.38;;;3.38;;
45848;SDS011;31567;54.600;9.842;2023-07-08T07:32:43;6.53;;;3.00;;
45848;SDS011;31567;54.600;9.842;2023-07-08T07:36:23;4.28;;;2.92;;
45848;SDS011;31567;54.600;9.842;2023-07-08T07:40:02;3.28;;;2.95;;
45848;SDS011;31567;54.600;9.842;2023-07-08T07:43:43;5.10;;;2.75;;
45848;SDS011;31567;54.600;9.842;2023-07-08T07:47:23;5.18;;;3.00;;
45848;SDS011;31567;54.600;9.842;2023-07-08T07:51:03;4.30;;;2.85;;
45848;SDS011;31567;54.600;9.842;2023-07-08T07:54:44;5.97;;;3.53;;
45848;SDS011;31567;54.600;9.842;2023-07-08T07:58:23;4.57;;;3.72;;
45848;SDS011;31567;54.600;9.842;2023-07-08T08:02:03;3.88;;;2.80;;
45848;SDS011;31567;54.600;9.842;2023-07-08T08:05:42;3.60;;;2.90;;
45848;SDS011;31567;54.600;9.842;2023-07-08T08:09:22;4.95;;;2.67;;
45848;SDS011;31567;54.600;9.842;2023-07-08T08:13:02;3.38;;;3.00;;
45848;SDS011;31567;54.600;9.842;2023-07-08T08:16:42;2.92;;;2.10;;
45848;SDS011;31567;54.600;9.842;2023-07-08T08:20:22;5.18;;;2.90;;
45848;SDS011;31567;54.600;9.842;2023-07-08T08:24:03;4.22;;;2.92;;
45848;SDS011;31567;54.600;9.842;2023-07-08T08:27:43;3.53;;;2.88;;
45848;SDS011;31567;54.600;9.842;2023-07-08T08:31:23;6.80;;;3.72;;
45848;SDS011;31567;54.600;9.842;2023-07-08T08:35:02;3.50;;;2.78;;
45848;SDS011;31567;54.600;9.842;2023-07-08T08:38:42;4.63;;;2.65;;
45848;SDS011;31567;54.600;9.842;2023-07-08T08:42:41;4.07;;;2.60;;
45848;SDS011;31567;54.600;9.842;2023-07-08T08:46:27;5.25;;;2.40;;
45848;SDS011;31567;54.600;9.842;2023-07-08T08:50:13;2.92;;;2.22;;
45848;SDS011;31567;54.600;9.842;2023-07-08T08:53:59;5.90;;;3.03;;
45848;SDS011;31567;54.600;9.842;2023-07-08T09:01:28;5.18;;;2.80;;
45848;SDS011;31567;54.600;9.842;2023-07-08T09:05:08;6.45;;;2.92;;
45848;SDS011;31567;54.600;9.842;2023-07-08T09:08:50;4.00;;;2.85;;
45848;SDS011;31567;54.600;9.842;2023-07-08T09:12:31;3.45;;;2.88;;
45848;SDS011;31567;54.600;9.842;2023-07-08T09:24:08;4.47;;;3.00;;
45848;SDS011;31567;54.600;9.842;2023-07-08T09:27:55;3.97;;;2.88;;
45848;SDS011;31567;54.600;9.842;2023-07-08T09:31:37;3.35;;;2.30;;
45848;SDS011;31567;54.600;9.842;2023-07-08T09:35:22;5.22;;;3.00;;
45848;SDS011;31567;54.600;9.842;2023-07-08T09:39:09;4.28;;;3.30;;
45848;SDS011;31567;54.600;9.842;2023-07-08T09:42:51;4.00;;;2.90;;
45848;SDS011;31567;54.600;9.842;2023-07-08T09:46:36;4.53;;;2.50;;
45848;SDS011;31567;54.600;9.842;2023-07-08T09:50:23;4.00;;;2.30;;
45848;SDS011;31567;54.600;9.842;2023-07-08T09:54:05;3.40;;;2.97;;
45848;SDS011;31567;54.600;9.842;2023-07-08T09:57:47;4.18;;;2.67;;
45848;SDS011;31567;54.600;9.842;2023-07-08T10:01:29;4.15;;;3.15;;
45848;SDS011;31567;54.600;9.842;2023-07-08T10:08:52;3.08;;;2.67;;
45848;SDS011;31567;54.600;9.842;2023-07-08T10:12:39;3.67;;;2.58;;
45848;SDS011;31567;54.600;9.842;2023-07-08T10:16:28;5.22;;;2.45;;
45848;SDS011;31567;54.600;9.842;2023-07-08T10:20:12;3.33;;;2.27;;
45848;SDS011;31567;54.600;9.842;2023-07-08T10:32:05;5.47;;;2.42;;
45848;SDS011;31567;54.600;9.842;2023-07-08T10:36:15;5.28;;;2.60;;
45848;SDS011;31567;54.600;9.842;2023-07-08T10:44:26;5.93;;;2.40;;
45848;SDS011;31567;54.600;9.842;2023-07-08T10:48:31;4.93;;;3.53;;
45848;SDS011;31567;54.600;9.842;2023-07-08T10:52:30;3.08;;;2.00;;
45848;SDS011;31567;54.600;9.842;2023-07-08T11:00:51;3.28;;;2.50;;
45848;SDS011;31567;54.600;9.842;2023-07-08T11:04:54;3.55;;;2.45;;
45848;SDS011;31567;54.600;9.842;2023-07-08T11:08:44;5.13;;;2.42;;
45848;SDS011;31567;54.600;9.842;2023-07-08T11:12:36;6.15;;;3.13;;
45848;SDS011;31567;54.600;9.842;2023-07-08T11:16:24;9.40;;;3.22;;
45848;SDS011;31567;54.600;9.842;2023-07-08T11:20:16;3.97;;;2.50;;
45848;SDS011;31567;54.600;9.842;2023-07-08T11:28:03;4.13;;;3.08;;
45848;SDS011;31567;54.600;9.842;2023-07-08T11:31:44;6.68;;;3.20;;
45848;SDS011;31567;54.600;9.842;2023-07-08T11:36:07;5.07;;;2.65;;
45848;SDS011;31567;54.600;9.842;2023-07-08T11:39:33;4.70;;;2.53;;
45848;SDS011;31567;54.600;9.842;2023-07-08T11:43:23;6.13;;;2.75;;
45848;SDS011;31567;54.600;9.842;2023-07-08T11:47:24;4.63;;;2.45;;
45848;SDS011;31567;54.600;9.842;2023-07-08T11:51:19;2.65;;;2.38;;
45848;SDS011;31567;54.600;9.842;2023-07-08T11:55:22;4.45;;;2.20;;
45848;SDS011;31567;54.600;9.842;2023-07-08T11:59:16;3.50;;;2.17;;
45848;SDS011;31567;54.600;9.842;2023-07-08T12:02:58;4.22;;;2.00;;
45848;SDS011;31567;54.600;9.842;2023-07-08T12:06:44;3.37;;;2.30;;
45848;SDS011;31567;54.600;9.842;2023-07-08T12:10:34;3.25;;;2.13;;
45848;SDS011;31567;54.600;9.842;2023-07-08T12:14:18;3.25;;;2.40;;
45848;SDS011;31567;54.600;9.842;2023-07-08T12:18:00;4.07;;;2.40;;
45848;SDS011;31567;54.600;9.842;2023-07-08T12:21:42;5.30;;;2.47;;
45848;SDS011;31567;54.600;9.842;2023-07-08T12:25:23;4.70;;;2.10;;
45848;SDS011;31567;54.600;9.842;2023-07-08T12:29:06;4.05;;;2.20;;
45848;SDS011;31567;54.600;9.842;2023-07-08T12:32:46;4.68;;;2.40;;
45848;SDS011;31567;54.600;9.842;2023-07-08T12:36:27;2.20;;;1.90;;
45848;SDS011;31567;54.600;9.842;2023-07-08T12:40:09;2.78;;;2.13;;
45848;SDS011;31567;54.600;9.842;2023-07-08T12:43:50;2.53;;;2.22;;
45848;SDS011;31567;54.600;9.842;2023-07-08T12:47:30;3.03;;;2.15;;
45848;SDS011;31567;54.600;9.842;2023-07-08T12:51:14;3.60;;;1.90;;
45848;SDS011;31567;54.600;9.842;2023-07-08T12:55:02;2.45;;;2.05;;
45848;SDS011;31567;54.600;9.842;2023-07-08T12:58:42;2.50;;;1.90;;
45848;SDS011;31567;54.600;9.842;2023-07-08T13:02:24;3.70;;;2.10;;
45848;SDS011;31567;54.600;9.842;2023-07-08T13:06:06;2.10;;;1.95;;
45848;SDS011;31567;54.600;9.842;2023-07-08T13:09:48;1.70;;;1.60;;
45848;SDS011;31567;54.600;9.842;2023-07-08T13:13:31;1.85;;;1.60;;
45848;SDS011;31567;54.600;9.842;2023-07-08T13:21:06;3.88;;;1.65;;
45848;SDS011;31567;54.600;9.842;2023-07-08T13:24:49;2.05;;;1.20;;
45848;SDS011;31567;54.600;9.842;2023-07-08T13:28:38;2.20;;;1.60;;
45848;SDS011;31567;54.600;9.842;2023-07-08T13:32:18;3.08;;;1.48;;
45848;SDS011;31567;54.600;9.842;2023-07-08T13:36:01;4.20;;;1.40;;
45848;SDS011;31567;54.600;9.842;2023-07-08T13:39:45;2.10;;;1.30;;
45848;SDS011;31567;54.600;9.842;2023-07-08T13:43:26;2.65;;;1.73;;
45848;SDS011;31567;54.600;9.842;2023-07-08T13:47:18;3.53;;;1.55;;
45848;SDS011;31567;54.600;9.842;2023-07-08T13:51:06;1.48;;;1.33;;
45848;SDS011;31567;54.600;9.842;2023-07-08T13:54:53;1.88;;;1.30;;
45848;SDS011;31567;54.600;9.842;2023-07-08T13:58:41;1.58;;;1.45;;
45848;SDS011;31567;54.600;9.842;2023-07-08T14:02:27;4.20;;;1.60;;
45848;SDS011;31567;54.600;9.842;2023-07-08T14:06:13;1.58;;;1.25;;
45848;SDS011;31567;54.600;9.842;2023-07-08T14:09:58;1.75;;;1.50;;
45848;SDS011;31567;54.600;9.842;2023-07-08T14:13:37;1.70;;;1.60;;
45848;SDS011;31567;54.600;9.842;2023-07-08T14:17:26;1.65;;;1.50;;
45848;SDS011;31567;54.600;9.842;2023-07-08T14:21:06;2.88;;;1.50;;
45848;SDS011;31567;54.600;9.842;2023-07-08T14:24:48;1.45;;;1.30;;
45848;SDS011;31567;54.600;9.842;2023-07-08T14:28:27;2.67;;;1.08;;
45848;SDS011;31567;54.600;9.842;2023-07-08T14:32:19;2.20;;;1.33;;
45848;SDS011;31567;54.600;9.842;2023-07-08T14:36:11;2.63;;;1.55;;
45848;SDS011;31567;54.600;9.842;2023-07-08T14:39:51;1.75;;;1.50;;
45848;SDS011;31567;54.600;9.842;2023-07-08T14:43:31;4.38;;;1.77;;
45848;SDS011;31567;54.600;9.842;2023-07-08T14:47:13;2.38;;;1.33;;
45848;SDS011;31567;54.600;9.842;2023-07-08T14:50:54;1.77;;;1.45;;
45848;SDS011;31567;54.600;9.842;2023-07-08T14:54:34;1.38;;;1.20;;
45848;SDS011;31567;54.600;9.842;2023-07-08T14:58:20;2.45;;;1.65;;
45848;SDS011;31567;54.600;9.842;2023-07-08T15:02:12;3.00;;;1.40;;
45848;SDS011;31567;54.600;9.842;2023-07-08T15:05:59;1.85;;;1.73;;
45848;SDS011;31567;54.600;9.842;2023-07-08T15:09:38;1.60;;;1.38;;
45848;SDS011;31567;54.600;9.842;2023-07-08T15:13:18;1.52;;;1.38;;
45848;SDS011;31567;54.600;9.842;2023-07-08T15:17:00;1.08;;;1.02;;
45848;SDS011;31567;54.600;9.842;2023-07-08T15:20:40;2.13;;;1.95;;
45848;SDS011;31567;54.600;9.842;2023-07-08T15:24:21;1.65;;;1.55;;
45848;SDS011;31567;54.600;9.842;2023-07-08T15:28:01;2.45;;;1.50;;
45848;SDS011;31567;54.600;9.842;2023-07-08T15:31:41;3.88;;;1.67;;
45848;SDS011;31567;54.600;9.842;2023-07-08T15:35:23;3.80;;;1.40;;
45848;SDS011;31567;54.600;9.842;2023-07-08T15:39:05;2.55;;;1.30;;
45848;SDS011;31567;54.600;9.842;2023-07-08T15:42:46;2.35;;;1.60;;
45848;SDS011;31567;54.600;9.842;2023-07-08T15:46:30;1.90;;;1.60;;
45848;SDS011;31567;54.600;9.842;2023-07-08T15:50:12;3.72;;;1.80;;
45848;SDS011;31567;54.600;9.842;2023-07-08T15:53:53;2.47;;;1.10;;
45848;SDS011;31567;54.600;9.842;2023-07-08T15:57:34;1.65;;;1.40;;
45848;SDS011;31567;54.600;9.842;2023-07-08T16:01:20;1.45;;;1.13;;
45848;SDS011;31567;54.600;9.842;2023-07-08T16:05:02;2.83;;;1.30;;
45848;SDS011;31567;54.600;9.842;2023-07-08T16:08:42;1.83;;;1.45;;
45848;SDS011;31567;54.600;9.842;2023-07-08T16:12:22;2.03;;;1.38;;
45848;SDS011;31567;54.600;9.842;2023-07-08T16:16:02;2.45;;;1.38;;
45848;SDS011;31567;54.600;9.842;2023-07-08T16:19:42;4.07;;;1.25;;
45848;SDS011;31567;54.600;9.842;2023-07-08T16:23:22;1.90;;;1.42;;
45848;SDS011;31567;54.600;9.842;2023-07-08T16:27:03;2.72;;;1.40;;
45848;SDS011;31567;54.600;9.842;2023-07-08T16:30:43;2.85;;;1.30;;
45848;SDS011;31567;54.600;9.842;2023-07-08T16:34:22;1.67;;;1.20;;
45848;SDS011;31567;54.600;9.842;2023-07-08T16:38:02;1.60;;;1.10;;
45848;SDS011;31567;54.600;9.842;2023-07-08T16:41:41;2.15;;;1.10;;
45848;SDS011;31567;54.600;9.842;2023-07-08T16:45:22;3.05;;;1.30;;
45848;SDS011;31567;54.600;9.842;2023-07-08T16:49:02;1.33;;;1.23;;
45848;SDS011;31567;54.600;9.842;2023-07-08T16:52:42;1.73;;;1.23;;
45848;SDS011;31567;54.600;9.842;2023-07-08T16:56:22;1.77;;;1.17;;
45848;SDS011;31567;54.600;9.842;2023-07-08T17:00:02;2.03;;;1.50;;
45848;SDS011;31567;54.600;9.842;2023-07-08T17:03:42;2.70;;;1.60;;
45848;SDS011;31567;54.600;9.842;2023-07-08T17:07:22;2.20;;;1.52;;
45848;SDS011;31567;54.600;9.842;2023-07-08T17:11:01;2.85;;;1.52;;
45848;SDS011;31567;54.600;9.842;2023-07-08T17:14:41;1.90;;;1.70;;
45848;SDS011;31567;54.600;9.842;2023-07-08T17:18:21;1.80;;;1.50;;
45848;SDS011;31567;54.600;9.842;2023-07-08T17:22:02;2.28;;;1.83;;
45848;SDS011;31567;54.600;9.842;2023-07-08T17:25:42;1.77;;;1.45;;
45848;SDS011;31567;54.600;9.842;2023-07-08T17:29:21;1.65;;;1.50;;
45848;SDS011;31567;54.600;9.842;2023-07-08T17:33:01;2.15;;;1.42;;
45848;SDS011;31567;54.600;9.842;2023-07-08T17:36:41;1.60;;;1.38;;
45848;SDS011;31567;54.600;9.842;2023-07-08T17:40:24;1.67;;;1.42;;
45848;SDS011;31567;54.600;9.842;2023-07-08T17:44:06;1.93;;;1.40;;
45848;SDS011;31567;54.600;9.842;2023-07-08T17:47:46;5.00;;;1.40;;
45848;SDS011;31567;54.600;9.842;2023-07-08T17:51:27;1.70;;;1.20;;
45848;SDS011;31567;54.600;9.842;2023-07-08T17:55:13;2.95;;;1.40;;
45848;SDS011;31567;54.600;9.842;2023-07-08T17:58:54;2.45;;;1.70;;
45848;SDS011;31567;54.600;9.842;2023-07-08T18:02:34;1.95;;;1.40;;
45848;SDS011;31567;54.600;9.842;2023-07-08T18:06:14;1.60;;;1.50;;
45848;SDS011;31567;54.600;9.842;2023-07-08T18:09:54;2.42;;;1.35;;
45848;SDS011;31567;54.600;9.842;2023-07-08T18:13:34;3.97;;;1.70;;
45848;SDS011;31567;54.600;9.842;2023-07-08T18:17:16;3.58;;;1.40;;
45848;SDS011;31567;54.600;9.842;2023-07-08T18:20:55;2.67;;;1.30;;
45848;SDS011;31567;54.600;9.842;2023-07-08T18:24:35;4.30;;;1.33;;
45848;SDS011;31567;54.600;9.842;2023-07-08T18:28:15;2.13;;;1.42;;
45848;SDS011;31567;54.600;9.842;2023-07-08T18:31:54;3.25;;;1.65;;
45848;SDS011;31567;54.600;9.842;2023-07-08T18:35:34;3.63;;;1.48;;
45848;SDS011;31567;54.600;9.842;2023-07-08T18:39:14;2.53;;;1.58;;
45848;SDS011;31567;54.600;9.842;2023-07-08T18:43:00;6.32;;;1.90;;
45848;SDS011;31567;54.600;9.842;2023-07-08T18:46:44;3.17;;;1.27;;
45848;SDS011;31567;54.600;9.842;2023-07-08T18:50:24;5.32;;;1.50;;
45848;SDS011;31567;54.600;9.842;2023-07-08T18:54:03;2.30;;;1.60;;
45848;SDS011;31567;54.600;9.842;2023-07-08T18:57:44;4.75;;;1.85;;
45848;SDS011;31567;54.600;9.842;2023-07-08T19:01:24;1.70;;;1.33;;
45848;SDS011;31567;54.600;9.842;2023-07-08T19:05:04;2.30;;;1.33;;
45848;SDS011;31567;54.600;9.842;2023-07-08T19:08:44;1.77;;;1.55;;
45848;SDS011;31567;54.600;9.842;2023-07-08T19:12:27;4.35;;;1.90;;
45848;SDS011;31567;54.600;9.842;2023-07-08T19:16:09;2.13;;;1.90;;
45848;SDS011;31567;54.600;9.842;2023-07-08T19:19:49;3.92;;;1.70;;
45848;SDS011;31567;54.600;9.842;2023-07-08T19:23:29;2.45;;;1.58;;
45848;SDS011;31567;54.600;9.842;2023-07-08T19:27:14;4.65;;;1.88;;
45848;SDS011;31567;54.600;9.842;2023-07-08T19:30:55;7.10;;;2.45;;
45848;SDS011;31567;54.600;9.842;2023-07-08T19:34:36;2.47;;;1.90;;
45848;SDS011;31567;54.600;9.842;2023-07-08T19:38:15;3.75;;;2.03;;
45848;SDS011;31567;54.600;9.842;2023-07-08T19:41:55;5.03;;;1.90;;
45848;SDS011;31567;54.600;9.842;2023-07-08T19:45:35;5.90;;;2.45;;
45848;SDS011;31567;54.600;9.842;2023-07-08T19:49:15;3.40;;;1.63;;
45848;SDS011;31567;54.600;9.842;2023-07-08T19:52:55;7.57;;;2.13;;
45848;SDS011;31567;54.600;9.842;2023-07-08T19:56:34;2.75;;;1.65;;
45848;SDS011;31567;54.600;9.842;2023-07-08T20:00:17;3.03;;;2.15;;
45848;SDS011;31567;54.600;9.842;2023-07-08T20:07:40;4.13;;;2.10;;
45848;SDS011;31567;54.600;9.842;2023-07-08T20:11:21;3.47;;;2.00;;
45848;SDS011;31567;54.600;9.842;2023-07-08T20:15:00;3.30;;;2.20;;
45848;SDS011;31567;54.600;9.842;2023-07-08T20:18:40;2.85;;;2.00;;
45848;SDS011;31567;54.600;9.842;2023-07-08T20:22:20;2.33;;;1.80;;
45848;SDS011;31567;54.600;9.842;2023-07-08T20:25:59;3.28;;;2.10;;
45848;SDS011;31567;54.600;9.842;2023-07-08T20:29:40;3.90;;;2.13;;
45848;SDS011;31567;54.600;9.842;2023-07-08T20:33:20;2.08;;;1.90;;
45848;SDS011;31567;54.600;9.842;2023-07-08T20:37:00;2.80;;;2.22;;
45848;SDS011;31567;54.600;9.842;2023-07-08T20:40:40;5.43;;;2.35;;
45848;SDS011;31567;54.600;9.842;2023-07-08T20:44:21;3.42;;;2.17;;
45848;SDS011;31567;54.600;9.842;2023-07-08T20:48:01;5.63;;;2.40;;
45848;SDS011;31567;54.600;9.842;2023-07-08T20:51:41;2.70;;;2.17;;
45848;SDS011;31567;54.600;9.842;2023-07-08T20:55:21;3.78;;;2.40;;
45848;SDS011;31567;54.600;9.842;2023-07-08T20:59:01;2.80;;;2.60;;
45848;SDS011;31567;54.600;9.842;2023-07-08T21:02:41;6.47;;;2.60;;
45848;SDS011;31567;54.600;9.842;2023-07-08T21:06:24;3.47;;;2.10;;
45848;SDS011;31567;54.600;9.842;2023-07-08T21:10:06;3.23;;;2.50;;
45848;SDS011;31567;54.600;9.842;2023-07-08T21:13:53;4.15;;;2.38;;
45848;SDS011;31567;54.600;9.842;2023-07-08T21:17:32;3.10;;;2.38;;
45848;SDS011;31567;54.600;9.842;2023-07-08T21:21:15;4.13;;;2.63;;
45848;SDS011;31567;54.600;9.842;2023-07-08T21:24:54;2.90;;;2.70;;
45848;SDS011;31567;54.600;9.842;2023-07-08T21:28:34;4.78;;;2.95;;
45848;SDS011;31567;54.600;9.842;2023-07-08T21:32:16;6.15;;;2.92;;
45848;SDS011;31567;54.600;9.842;2023-07-08T21:35:57;4.93;;;2.70;;
45848;SDS011;31567;54.600;9.842;2023-07-08T21:39:37;5.18;;;2.75;;
45848;SDS011;31567;54.600;9.842;2023-07-08T21:43:18;5.70;;;2.58;;
45848;SDS011;31567;54.600;9.842;2023-07-08T21:47:00;3.22;;;2.90;;
45848;SDS011;31567;54.600;9.842;2023-07-08T21:50:52;2.78;;;2.38;;
45848;SDS011;31567;54.600;9.842;2023-07-08T21:54:34;3.08;;;2.72;;
45848;SDS011;31567;54.600;9.842;2023-07-08T21:58:14;3.30;;;2.88;;
45848;SDS011;31567;54.600;9.842;2023-07-08T22:01:54;3.55;;;3.25;;
45848;SDS011;31567;54.600;9.842;2023-07-08T22:05:34;2.88;;;2.65;;
45848;SDS011;31567;54.600;9.842;2023-07-08T22:09:14;6.25;;;3.20;;
45848;SDS011;31567;54.600;9.842;2023-07-08T22:12:53;3.20;;;2.90;;
45848;SDS011;31567;54.600;9.842;2023-07-08T22:16:33;4.22;;;3.42;;
45848;SDS011;31567;54.600;9.842;2023-07-08T22:20:15;4.55;;;3.13;;
45848;SDS011;31567;54.600;9.842;2023-07-08T22:24:00;5.22;;;3.30;;
45848;SDS011;31567;54.600;9.842;2023-07-08T22:27:42;5.00;;;3.67;;
45848;SDS011;31567;54.600;9.842;2023-07-08T22:31:25;3.92;;;3.35;;
45848;SDS011;31567;54.600;9.842;2023-07-08T22:35:19;4.97;;;3.55;;
45848;SDS011;31567;54.600;9.842;2023-07-08T22:39:04;6.97;;;3.45;;
45848;SDS011;31567;54.600;9.842;2023-07-08T22:42:45;7.57;;;3.75;;
45848;SDS011;31567;54.600;9.842;2023-07-08T22:46:24;4.90;;;4.22;;
45848;SDS011;31567;54.600;9.842;2023-07-08T22:50:04;4.22;;;3.75;;
45848;SDS011;31567;54.600;9.842;2023-07-08T22:53:44;6.20;;;4.13;;
45848;SDS011;31567;54.600;9.842;2023-07-08T22:57:23;6.55;;;4.60;;
45848;SDS011;31567;54.600;9.842;2023-07-08T23:01:03;6.05;;;4.28;;